SARF

Details ICAO SARF (FMA)
Name FORMOSA
Region Argentina
Timezone America/Argentina/Cordoba (UTC-3.0)
Plans Departing 12
Arriving 8
Stats Elevation 194 ft / 59 m (AMSL)
Location -26.212722° -58.228111°
Runways 1
Magnetic Variation 13.231° W
Sunrise 2017-12-13 08:55:49 UTC / 2017-12-13 05:55:49 Local
Sunset 2017-12-13 22:41:24 UTC / 2017-12-13 19:41:24 Local
Advertisement - Login to hide

Runways

ID Width Length Bearing (true) Bearing (mag) Surface Threshold Offset Overrun Length
04 100 ft / 30 m 5,922 ft / 1,805 m 24.88° 38.11° Asphalt 0 ft / 0 m 65 ft / 20 m
22 100 ft / 30 m 5,922 ft / 1,805 m 204.88° 218.11° Asphalt 0 ft / 0 m 65 ft / 20 m

Approach Navaids

Runway Type Ident Frequency Range Bearing (true) Bearing (mag) Slope Elevation
22 Localiser FS 110.90 MHz 18 nm / 33 km 204.88° 218.11° - 194 ft / 59 m (AMSL)
22 Glidescope FS 110.90 MHz 10 nm / 19 km 204.88° 218.11° 3.00° 193 ft / 59 m (AMSL)
22 DME FS 110.90 MHz 18 nm / 33 km - - - 194 ft / 59 m (AMSL)

Map

Weather


0- 5 10 15 20 25 30 35+ Temperature / ° C

Clouds and Precipitation
Forecast for 2017-12-13 18:00 UTC. Updated 5 minutes ago

Ground ~20,000 ft ~40,000 ft Winds

METAR

SARF 131300Z 05015KT CAVOK 33/19 Q1011

TAF

TAF SARF 131100Z 1312/1412 05010KT CAVOK TX37/1318Z TN24/1409Z

Frequencies

Tower 119.10 MHz TWR
Tower 119.00 MHz TWR
Warning: Do not use this data for real-world aviation or navigation. No guarantee of current accuracy is given.